TAX09JF LXGB-LFKC
Flight info
| Callsign | TAX09JF |
|---|---|
| Flight time | 1h 53m |
| Altitude | 36000 |
| Route | RIXUR N851 ISTER DCT LUNOR DCT NOLVI DCT GARPU DCT LIBLO |
| Aircraft | A320/M-SDE3FGHIRWY/LB1 |
Departure
| Time | 2026-04-26 21:47 |
|---|---|
| Airport | Gibraltar Airport (LXGB) |
Arrival
| Time | 2026-04-26 23:40 |
|---|---|
| Airport | Calvi Sainte Catherine Airport (LFKC) |
| Time | Latitude | Longitude | Altitude | Speed | Heading |
|---|---|---|---|---|---|
| 2026-04-26 21:32 | 36.15306 | -5.34628 | 17 ft | 0 kts | 359° |
| 2026-04-26 21:39 | 36.15301 | -5.34628 | 17 ft | 4 kts | 359° |
| 2026-04-26 21:39 | 36.15274 | -5.34628 | 17 ft | 4 kts | 354° |
| 2026-04-26 21:40 | 36.15248 | -5.34620 | 17 ft | 4 kts | 329° |
| 2026-04-26 21:40 | 36.15231 | -5.34599 | 22 ft | 4 kts | 281° |
| 2026-04-26 21:40 | 36.15230 | -5.34585 | 23 ft | 1 kts | 267° |
| 2026-04-26 21:40 | 36.15230 | -5.34584 | 23 ft | 1 kts | 267° |
| 2026-04-26 21:43 | 36.15230 | -5.34597 | 21 ft | 5 kts | 268° |
| 2026-04-26 21:43 | 36.15205 | -5.34670 | 22 ft | 11 kts | 202° |
| 2026-04-26 21:43 | 36.15141 | -5.34699 | 23 ft | 9 kts | 225° |
| 2026-04-26 21:43 | 36.15130 | -5.34792 | 22 ft | 17 kts | 269° |
| 2026-04-26 21:44 | 36.15121 | -5.34989 | 24 ft | 28 kts | 267° |
| 2026-04-26 21:44 | 36.15114 | -5.35227 | 23 ft | 27 kts | 267° |
| 2026-04-26 21:44 | 36.15104 | -5.35433 | 23 ft | 25 kts | 268° |
| 2026-04-26 21:44 | 36.15097 | -5.35640 | 19 ft | 21 kts | 268° |
| 2026-04-26 21:45 | 36.15092 | -5.35819 | 18 ft | 18 kts | 262° |
| 2026-04-26 21:45 | 36.15081 | -5.35923 | 17 ft | 4 kts | 8° |
| 2026-04-26 21:45 | 36.15093 | -5.35873 | 18 ft | 7 kts | 85° |
| 2026-04-26 21:45 | 36.15093 | -5.35863 | 19 ft | 0 kts | 88° |
| 2026-04-26 21:46 | 36.15094 | -5.35808 | 18 ft | 33 kts | 88° |
| 2026-04-26 21:46 | 36.15114 | -5.35229 | 25 ft | 99 kts | 87° |
| 2026-04-26 21:47 | 36.15156 | -5.34164 | 174 ft | 136 kts | 86° |
| 2026-04-26 21:47 | 36.15198 | -5.33055 | 1016 ft | 127 kts | 87° |
| 2026-04-26 21:47 | 36.15427 | -5.31989 | 1550 ft | 137 kts | 61° |
| 2026-04-26 21:47 | 36.16076 | -5.30995 | 1827 ft | 159 kts | 56° |
| 2026-04-26 21:48 | 36.16766 | -5.29815 | 2080 ft | 181 kts | 59° |
| 2026-04-26 21:48 | 36.17532 | -5.28461 | 2369 ft | 201 kts | 59° |
| 2026-04-26 21:48 | 36.18382 | -5.26960 | 2731 ft | 225 kts | 58° |
| 2026-04-26 21:48 | 36.19317 | -5.25313 | 3306 ft | 241 kts | 58° |
| 2026-04-26 21:49 | 36.20311 | -5.23592 | 4135 ft | 248 kts | 59° |
| 2026-04-26 21:49 | 36.21320 | -5.21845 | 5014 ft | 251 kts | 58° |
| 2026-04-26 21:49 | 36.22346 | -5.20068 | 5847 ft | 257 kts | 58° |
| 2026-04-26 21:49 | 36.23398 | -5.18252 | 6662 ft | 262 kts | 57° |
| 2026-04-26 21:50 | 36.24474 | -5.16398 | 7418 ft | 268 kts | 57° |
| 2026-04-26 21:50 | 36.25199 | -5.15144 | 7910 ft | 273 kts | 57° |
| 2026-04-26 21:50 | 36.26664 | -5.12611 | 8900 ft | 281 kts | 56° |
| 2026-04-26 21:50 | 36.27830 | -5.10596 | 9650 ft | 287 kts | 56° |
| 2026-04-26 21:51 | 36.28992 | -5.08582 | 10289 ft | 297 kts | 56° |
| 2026-04-26 21:51 | 36.30252 | -5.06392 | 10555 ft | 320 kts | 57° |
| 2026-04-26 21:51 | 36.31593 | -5.04061 | 10763 ft | 343 kts | 57° |
| 2026-04-26 21:51 | 36.33024 | -5.01576 | 11000 ft | 363 kts | 57° |
| 2026-04-26 21:52 | 36.34510 | -4.98994 | 11517 ft | 372 kts | 56° |
| 2026-04-26 21:52 | 36.36025 | -4.96364 | 12171 ft | 377 kts | 56° |
| 2026-04-26 21:52 | 36.37560 | -4.93697 | 12759 ft | 384 kts | 54° |
| 2026-04-26 21:52 | 36.39116 | -4.90987 | 13420 ft | 388 kts | 54° |
| 2026-04-26 21:53 | 36.40671 | -4.88276 | 14033 ft | 393 kts | 54° |
| 2026-04-26 21:53 | 36.42280 | -4.85476 | 14694 ft | 394 kts | 54° |
| 2026-04-26 21:53 | 36.43876 | -4.82698 | 15323 ft | 396 kts | 54° |
| 2026-04-26 21:53 | 36.45457 | -4.79940 | 15939 ft | 399 kts | 54° |
| 2026-04-26 21:54 | 36.47067 | -4.77122 | 16539 ft | 401 kts | 54° |
| 2026-04-26 21:54 | 36.48686 | -4.74289 | 17120 ft | 403 kts | 54° |
| 2026-04-26 21:54 | 36.50316 | -4.71439 | 17717 ft | 406 kts | 54° |
| 2026-04-26 21:54 | 36.51957 | -4.68568 | 18290 ft | 408 kts | 54° |
| 2026-04-26 21:55 | 36.53604 | -4.65685 | 18808 ft | 411 kts | 54° |
| 2026-04-26 21:55 | 36.55262 | -4.62776 | 19289 ft | 413 kts | 54° |
| 2026-04-26 21:55 | 36.56928 | -4.59854 | 19783 ft | 416 kts | 54° |
| 2026-04-26 21:55 | 36.58060 | -4.57870 | 20103 ft | 417 kts | 54° |
| 2026-04-26 21:56 | 36.60290 | -4.53954 | 20735 ft | 420 kts | 54° |
| 2026-04-26 21:56 | 36.61980 | -4.50975 | 21191 ft | 422 kts | 54° |
| 2026-04-26 21:56 | 36.63677 | -4.47978 | 21653 ft | 425 kts | 54° |
| 2026-04-26 21:56 | 36.64827 | -4.45944 | 21955 ft | 426 kts | 54° |
| 2026-04-26 21:57 | 36.66541 | -4.42914 | 22404 ft | 429 kts | 54° |
| 2026-04-26 21:57 | 36.68264 | -4.39871 | 22855 ft | 431 kts | 54° |
| 2026-04-26 21:57 | 36.69998 | -4.36811 | 23277 ft | 433 kts | 54° |
| 2026-04-26 21:57 | 36.71739 | -4.33733 | 23696 ft | 436 kts | 54° |
| 2026-04-26 21:58 | 36.73487 | -4.30638 | 24036 ft | 438 kts | 54° |
| 2026-04-26 21:58 | 36.75244 | -4.27521 | 24372 ft | 440 kts | 54° |
| 2026-04-26 21:58 | 36.77003 | -4.24388 | 24718 ft | 442 kts | 54° |
| 2026-04-26 21:58 | 36.78771 | -4.21236 | 25057 ft | 444 kts | 54° |
| 2026-04-26 21:59 | 36.80546 | -4.18073 | 25396 ft | 446 kts | 54° |
| 2026-04-26 21:59 | 36.82335 | -4.14890 | 25729 ft | 448 kts | 53° |
| 2026-04-26 21:59 | 36.84132 | -4.11696 | 26053 ft | 450 kts | 53° |
| 2026-04-26 21:59 | 36.85933 | -4.08487 | 26371 ft | 453 kts | 53° |
| 2026-04-26 22:00 | 36.87741 | -4.05258 | 26680 ft | 455 kts | 53° |
| 2026-04-26 22:00 | 36.89554 | -4.02016 | 26971 ft | 457 kts | 53° |
| 2026-04-26 22:00 | 36.91377 | -3.98753 | 27263 ft | 459 kts | 53° |
| 2026-04-26 22:00 | 36.93205 | -3.95481 | 27568 ft | 460 kts | 53° |
| 2026-04-26 22:01 | 36.95041 | -3.92193 | 27866 ft | 462 kts | 53° |
| 2026-04-26 22:01 | 36.96883 | -3.88887 | 28148 ft | 464 kts | 53° |
| 2026-04-26 22:01 | 36.98729 | -3.85573 | 28429 ft | 466 kts | 53° |
| 2026-04-26 22:01 | 37.00578 | -3.82250 | 28832 ft | 465 kts | 53° |
| 2026-04-26 22:02 | 37.02426 | -3.78930 | 29228 ft | 464 kts | 53° |
| 2026-04-26 22:02 | 37.04268 | -3.75616 | 29628 ft | 464 kts | 53° |
| 2026-04-26 22:02 | 37.06105 | -3.72303 | 30050 ft | 463 kts | 53° |
| 2026-04-26 22:02 | 37.07935 | -3.68996 | 30412 ft | 462 kts | 53° |
| 2026-04-26 22:03 | 37.09761 | -3.65691 | 30756 ft | 461 kts | 53° |
| 2026-04-26 22:03 | 37.11439 | -3.62270 | 31086 ft | 462 kts | 61° |
| 2026-04-26 22:03 | 37.12871 | -3.58661 | 31417 ft | 462 kts | 62° |
| 2026-04-26 22:03 | 37.14294 | -3.55060 | 31766 ft | 461 kts | 62° |
| 2026-04-26 22:04 | 37.15719 | -3.51464 | 32098 ft | 460 kts | 61° |
| 2026-04-26 22:04 | 37.17141 | -3.47873 | 32445 ft | 460 kts | 61° |
| 2026-04-26 22:04 | 37.18561 | -3.44286 | 32796 ft | 459 kts | 61° |
| 2026-04-26 22:04 | 37.19977 | -3.40702 | 33142 ft | 459 kts | 62° |
| 2026-04-26 22:05 | 37.21387 | -3.37115 | 33461 ft | 458 kts | 62° |
| 2026-04-26 22:05 | 37.22794 | -3.33536 | 33775 ft | 457 kts | 62° |
| 2026-04-26 22:05 | 37.24197 | -3.29959 | 34128 ft | 457 kts | 62° |
| 2026-04-26 22:05 | 37.25599 | -3.26385 | 34417 ft | 456 kts | 62° |
| 2026-04-26 22:06 | 37.26999 | -3.22814 | 34683 ft | 456 kts | 62° |
| 2026-04-26 22:06 | 37.28400 | -3.19240 | 34939 ft | 456 kts | 62° |
| 2026-04-26 22:06 | 37.29802 | -3.15667 | 35184 ft | 456 kts | 62° |
| 2026-04-26 22:06 | 37.31203 | -3.12092 | 35417 ft | 456 kts | 62° |
| 2026-04-26 22:07 | 37.32603 | -3.08511 | 35645 ft | 457 kts | 62° |
| 2026-04-26 22:07 | 37.33999 | -3.04927 | 35869 ft | 457 kts | 62° |
| 2026-04-26 22:07 | 37.35394 | -3.01338 | 36086 ft | 458 kts | 62° |
| 2026-04-26 22:07 | 37.36792 | -2.97736 | 36145 ft | 460 kts | 62° |
| 2026-04-26 22:08 | 37.39604 | -2.90489 | 36154 ft | 462 kts | 62° |
| 2026-04-26 22:08 | 37.42415 | -2.83228 | 36163 ft | 462 kts | 62° |
| 2026-04-26 22:09 | 37.45227 | -2.75965 | 36152 ft | 462 kts | 62° |
| 2026-04-26 22:09 | 37.48031 | -2.68703 | 36161 ft | 461 kts | 63° |
| 2026-04-26 22:10 | 37.50823 | -2.61436 | 36177 ft | 461 kts | 63° |
| 2026-04-26 22:10 | 37.53608 | -2.54168 | 36187 ft | 461 kts | 63° |
| 2026-04-26 22:11 | 37.56383 | -2.46899 | 36183 ft | 460 kts | 63° |
| 2026-04-26 22:11 | 37.59161 | -2.39629 | 36174 ft | 460 kts | 63° |
| 2026-04-26 22:12 | 37.61938 | -2.32362 | 36185 ft | 460 kts | 63° |
| 2026-04-26 22:12 | 37.64709 | -2.25088 | 36190 ft | 460 kts | 63° |
| 2026-04-26 22:13 | 37.67468 | -2.17812 | 36181 ft | 459 kts | 63° |
| 2026-04-26 22:13 | 37.70225 | -2.10542 | 36198 ft | 459 kts | 63° |
| 2026-04-26 22:14 | 37.72982 | -2.03269 | 36204 ft | 459 kts | 63° |
| 2026-04-26 22:14 | 37.75717 | -1.95995 | 36194 ft | 458 kts | 63° |
| 2026-04-26 22:15 | 37.78440 | -1.88723 | 36186 ft | 458 kts | 63° |
| 2026-04-26 22:15 | 37.81168 | -1.81458 | 36190 ft | 457 kts | 63° |
| 2026-04-26 22:16 | 37.83889 | -1.74195 | 36191 ft | 457 kts | 63° |
| 2026-04-26 22:16 | 37.86602 | -1.66936 | 36186 ft | 456 kts | 63° |
| 2026-04-26 22:17 | 37.89308 | -1.59665 | 36191 ft | 456 kts | 63° |
| 2026-04-26 22:17 | 37.92010 | -1.52393 | 36193 ft | 456 kts | 63° |
| 2026-04-26 22:18 | 37.94705 | -1.45116 | 36202 ft | 456 kts | 63° |
| 2026-04-26 22:18 | 37.97390 | -1.37836 | 36199 ft | 456 kts | 63° |
| 2026-04-26 22:19 | 38.00073 | -1.30561 | 36194 ft | 455 kts | 63° |
| 2026-04-26 22:19 | 38.02734 | -1.23336 | 36190 ft | 455 kts | 64° |
| 2026-04-26 22:20 | 38.04975 | -1.17239 | 36183 ft | 455 kts | 64° |
| 2026-04-26 22:20 | 38.08069 | -1.08775 | 36192 ft | 455 kts | 64° |
| 2026-04-26 22:21 | 38.10732 | -1.01486 | 36187 ft | 455 kts | 64° |
| 2026-04-26 22:21 | 38.13393 | -0.94194 | 36182 ft | 455 kts | 64° |
| 2026-04-26 22:22 | 38.16046 | -0.86896 | 36173 ft | 455 kts | 64° |
| 2026-04-26 22:22 | 38.18696 | -0.79594 | 36171 ft | 455 kts | 64° |
| 2026-04-26 22:23 | 38.21334 | -0.72283 | 36180 ft | 455 kts | 64° |
| 2026-04-26 22:23 | 38.23962 | -0.64971 | 36178 ft | 455 kts | 64° |
| 2026-04-26 22:24 | 38.26599 | -0.57658 | 36175 ft | 454 kts | 64° |
| 2026-04-26 22:24 | 38.29114 | -0.50275 | 36174 ft | 455 kts | 66° |
| 2026-04-26 22:25 | 38.31447 | -0.42787 | 36171 ft | 455 kts | 67° |
| 2026-04-26 22:25 | 38.33770 | -0.35293 | 36170 ft | 455 kts | 67° |
| 2026-04-26 22:26 | 38.36130 | -0.27820 | 36170 ft | 455 kts | 66° |
| 2026-04-26 22:26 | 38.38574 | -0.20387 | 36169 ft | 455 kts | 65° |
| 2026-04-26 22:27 | 38.41080 | -0.12989 | 36167 ft | 455 kts | 65° |
| 2026-04-26 22:27 | 38.43574 | -0.05579 | 36168 ft | 455 kts | 65° |
| 2026-04-26 22:28 | 38.46022 | 0.01859 | 36165 ft | 455 kts | 66° |
| 2026-04-26 22:28 | 38.48415 | 0.09327 | 36170 ft | 455 kts | 66° |
| 2026-04-26 22:29 | 38.50792 | 0.16808 | 36167 ft | 455 kts | 66° |
| 2026-04-26 22:29 | 38.53182 | 0.24288 | 36167 ft | 455 kts | 66° |
| 2026-04-26 22:30 | 38.55578 | 0.31766 | 36162 ft | 455 kts | 66° |
| 2026-04-26 22:30 | 38.57965 | 0.39246 | 36171 ft | 455 kts | 66° |
| 2026-04-26 22:31 | 38.60336 | 0.46741 | 36168 ft | 455 kts | 66° |
| 2026-04-26 22:31 | 38.62705 | 0.54233 | 36166 ft | 455 kts | 66° |
| 2026-04-26 22:32 | 38.65072 | 0.61731 | 36166 ft | 454 kts | 66° |
| 2026-04-26 22:32 | 38.67430 | 0.69230 | 36168 ft | 454 kts | 67° |
| 2026-04-26 22:33 | 38.70958 | 0.80482 | 36174 ft | 454 kts | 67° |
| 2026-04-26 22:34 | 38.73300 | 0.87988 | 36169 ft | 454 kts | 67° |
| 2026-04-26 22:34 | 38.75641 | 0.95489 | 36169 ft | 453 kts | 67° |
| 2026-04-26 22:35 | 38.77982 | 1.02989 | 36172 ft | 453 kts | 67° |
| 2026-04-26 22:35 | 38.80314 | 1.10499 | 36170 ft | 453 kts | 67° |
| 2026-04-26 22:36 | 38.82636 | 1.18015 | 36177 ft | 453 kts | 67° |
| 2026-04-26 22:36 | 38.84948 | 1.25534 | 36175 ft | 453 kts | 67° |
| 2026-04-26 22:37 | 38.87244 | 1.33000 | 36176 ft | 453 kts | 67° |
| 2026-04-26 22:37 | 38.89554 | 1.40520 | 36174 ft | 453 kts | 68° |
| 2026-04-26 22:38 | 38.91477 | 1.46826 | 36172 ft | 453 kts | 68° |
| 2026-04-26 22:38 | 38.93739 | 1.54375 | 36176 ft | 453 kts | 68° |
| 2026-04-26 22:39 | 38.95962 | 1.61941 | 36171 ft | 453 kts | 68° |
| 2026-04-26 22:39 | 38.98176 | 1.69513 | 36171 ft | 452 kts | 68° |
| 2026-04-26 22:40 | 39.00398 | 1.77080 | 36165 ft | 452 kts | 68° |
| 2026-04-26 22:40 | 39.02619 | 1.84650 | 36166 ft | 452 kts | 68° |
| 2026-04-26 22:41 | 39.04831 | 1.92221 | 36165 ft | 452 kts | 68° |
| 2026-04-26 22:41 | 39.07030 | 1.99808 | 36167 ft | 452 kts | 69° |
| 2026-04-26 22:42 | 39.09221 | 2.07392 | 36170 ft | 452 kts | 69° |
| 2026-04-26 22:42 | 39.11420 | 2.14976 | 36164 ft | 452 kts | 69° |
| 2026-04-26 22:43 | 39.13616 | 2.22567 | 36163 ft | 452 kts | 69° |
| 2026-04-26 22:43 | 39.15798 | 2.30170 | 36163 ft | 452 kts | 69° |
| 2026-04-26 22:44 | 39.17977 | 2.37779 | 36158 ft | 453 kts | 69° |
| 2026-04-26 22:44 | 39.20159 | 2.45393 | 36159 ft | 453 kts | 68° |
| 2026-04-26 22:45 | 39.22327 | 2.53016 | 36160 ft | 453 kts | 69° |
| 2026-04-26 22:45 | 39.24493 | 2.60649 | 36164 ft | 453 kts | 68° |
| 2026-04-26 22:46 | 39.26654 | 2.68281 | 36161 ft | 453 kts | 69° |
| 2026-04-26 22:46 | 39.28816 | 2.75922 | 36160 ft | 453 kts | 69° |
| 2026-04-26 22:47 | 39.30963 | 2.83510 | 36162 ft | 453 kts | 69° |
| 2026-04-26 22:47 | 39.33117 | 2.91152 | 36169 ft | 453 kts | 69° |
| 2026-04-26 22:48 | 39.35274 | 2.98854 | 36174 ft | 453 kts | 69° |
| 2026-04-26 22:48 | 39.37412 | 3.06512 | 36176 ft | 453 kts | 69° |
| 2026-04-26 22:49 | 39.39546 | 3.14173 | 36175 ft | 453 kts | 69° |
| 2026-04-26 22:49 | 39.41677 | 3.21835 | 36165 ft | 453 kts | 69° |
| 2026-04-26 22:50 | 39.44348 | 3.29172 | 36167 ft | 451 kts | 58° |
| 2026-04-26 22:50 | 39.47570 | 3.36151 | 36168 ft | 451 kts | 58° |
| 2026-04-26 22:51 | 39.50781 | 3.43134 | 36180 ft | 451 kts | 58° |
| 2026-04-26 22:51 | 39.53970 | 3.50079 | 36173 ft | 452 kts | 58° |
| 2026-04-26 22:52 | 39.57172 | 3.57075 | 36171 ft | 451 kts | 58° |
| 2026-04-26 22:52 | 39.60367 | 3.64084 | 36170 ft | 451 kts | 58° |
| 2026-04-26 22:53 | 39.63560 | 3.71094 | 36171 ft | 451 kts | 58° |
| 2026-04-26 22:53 | 39.66750 | 3.78113 | 36171 ft | 451 kts | 59° |
| 2026-04-26 22:54 | 39.69932 | 3.85138 | 36165 ft | 451 kts | 58° |
| 2026-04-26 22:54 | 39.73114 | 3.92170 | 36163 ft | 452 kts | 58° |
| 2026-04-26 22:55 | 39.76297 | 3.99208 | 36170 ft | 452 kts | 58° |
| 2026-04-26 22:55 | 39.79473 | 4.06256 | 36167 ft | 452 kts | 59° |
| 2026-04-26 22:56 | 39.82646 | 4.13317 | 36165 ft | 452 kts | 59° |
| 2026-04-26 22:56 | 39.85810 | 4.20390 | 36168 ft | 452 kts | 59° |
| 2026-04-26 22:57 | 39.88982 | 4.27462 | 36162 ft | 452 kts | 59° |
| 2026-04-26 22:57 | 39.92157 | 4.34540 | 36161 ft | 453 kts | 59° |
| 2026-04-26 22:58 | 39.95327 | 4.41628 | 36167 ft | 453 kts | 58° |
| 2026-04-26 22:58 | 39.98494 | 4.48732 | 36168 ft | 453 kts | 58° |
| 2026-04-26 22:59 | 40.01660 | 4.55835 | 36170 ft | 453 kts | 58° |
| 2026-04-26 22:59 | 40.04825 | 4.62951 | 36172 ft | 453 kts | 59° |
| 2026-04-26 23:00 | 40.07985 | 4.70075 | 36169 ft | 454 kts | 59° |
| 2026-04-26 23:00 | 40.11145 | 4.77213 | 36169 ft | 454 kts | 59° |
| 2026-04-26 23:01 | 40.14302 | 4.84357 | 36170 ft | 454 kts | 59° |
| 2026-04-26 23:01 | 40.17455 | 4.91511 | 36171 ft | 454 kts | 59° |
| 2026-04-26 23:02 | 40.20604 | 4.98674 | 36168 ft | 454 kts | 59° |
| 2026-04-26 23:02 | 40.23757 | 5.05847 | 36167 ft | 455 kts | 59° |
| 2026-04-26 23:03 | 40.26904 | 5.13030 | 36166 ft | 455 kts | 59° |
| 2026-04-26 23:03 | 40.30050 | 5.20222 | 36167 ft | 455 kts | 59° |
| 2026-04-26 23:04 | 40.33187 | 5.27431 | 36168 ft | 455 kts | 59° |
| 2026-04-26 23:04 | 40.36322 | 5.34645 | 36174 ft | 455 kts | 59° |
| 2026-04-26 23:05 | 40.39723 | 5.41632 | 36167 ft | 454 kts | 49° |
| 2026-04-26 23:05 | 40.43732 | 5.48030 | 36163 ft | 454 kts | 49° |
| 2026-04-26 23:06 | 40.47738 | 5.54466 | 36166 ft | 455 kts | 49° |
| 2026-04-26 23:06 | 40.51739 | 5.60905 | 36167 ft | 455 kts | 49° |
| 2026-04-26 23:07 | 40.55736 | 5.67354 | 36170 ft | 455 kts | 50° |
| 2026-04-26 23:07 | 40.59734 | 5.73813 | 36173 ft | 455 kts | 50° |
| 2026-04-26 23:08 | 40.63728 | 5.80290 | 36170 ft | 456 kts | 50° |
| 2026-04-26 23:08 | 40.67723 | 5.86771 | 36168 ft | 456 kts | 50° |
| 2026-04-26 23:09 | 40.71717 | 5.93262 | 36169 ft | 456 kts | 50° |
| 2026-04-26 23:09 | 40.75795 | 5.99666 | 36179 ft | 456 kts | 46° |
| 2026-04-26 23:10 | 40.80133 | 6.05763 | 36175 ft | 456 kts | 44° |
| 2026-04-26 23:10 | 40.84519 | 6.11802 | 36171 ft | 456 kts | 45° |
| 2026-04-26 23:11 | 40.88854 | 6.17927 | 36175 ft | 456 kts | 46° |
| 2026-04-26 23:11 | 40.93147 | 6.24110 | 36172 ft | 457 kts | 46° |
| 2026-04-26 23:12 | 40.96183 | 6.28475 | 36255 ft | 455 kts | 46° |
| 2026-04-26 23:12 | 41.00495 | 6.34657 | 36173 ft | 457 kts | 46° |
| 2026-04-26 23:13 | 41.04780 | 6.40876 | 36170 ft | 458 kts | 46° |
| 2026-04-26 23:13 | 41.09083 | 6.47104 | 36176 ft | 458 kts | 46° |
| 2026-04-26 23:14 | 41.13397 | 6.53328 | 36174 ft | 458 kts | 46° |
| 2026-04-26 23:14 | 41.17702 | 6.59570 | 36178 ft | 459 kts | 46° |
| 2026-04-26 23:15 | 41.22005 | 6.65820 | 36170 ft | 459 kts | 46° |
| 2026-04-26 23:15 | 41.26311 | 6.72084 | 36170 ft | 459 kts | 46° |
| 2026-04-26 23:16 | 41.30614 | 6.78359 | 36170 ft | 459 kts | 46° |
| 2026-04-26 23:16 | 41.34911 | 6.84646 | 36167 ft | 459 kts | 46° |
| 2026-04-26 23:17 | 41.39209 | 6.90945 | 36173 ft | 460 kts | 46° |
| 2026-04-26 23:17 | 41.43504 | 6.97259 | 36168 ft | 460 kts | 46° |
| 2026-04-26 23:18 | 41.47800 | 7.03585 | 36170 ft | 460 kts | 46° |
| 2026-04-26 23:18 | 41.52097 | 7.09916 | 36170 ft | 460 kts | 46° |
| 2026-04-26 23:19 | 41.56390 | 7.16266 | 36177 ft | 461 kts | 46° |
| 2026-04-26 23:19 | 41.60651 | 7.22666 | 36168 ft | 462 kts | 50° |
| 2026-04-26 23:20 | 41.64008 | 7.30006 | 36167 ft | 464 kts | 60° |
| 2026-04-26 23:20 | 41.67101 | 7.37587 | 36166 ft | 465 kts | 60° |
| 2026-04-26 23:21 | 41.69678 | 7.43900 | 36169 ft | 465 kts | 60° |
| 2026-04-26 23:21 | 41.72685 | 7.51258 | 36170 ft | 465 kts | 60° |
| 2026-04-26 23:22 | 41.75785 | 7.58861 | 36180 ft | 465 kts | 60° |
| 2026-04-26 23:22 | 41.78875 | 7.66484 | 36172 ft | 466 kts | 60° |
| 2026-04-26 23:23 | 41.81966 | 7.74110 | 36172 ft | 466 kts | 60° |
| 2026-04-26 23:23 | 41.85052 | 7.81751 | 36173 ft | 466 kts | 60° |
| 2026-04-26 23:24 | 41.88132 | 7.89398 | 36175 ft | 466 kts | 60° |
| 2026-04-26 23:24 | 41.91205 | 7.97058 | 36175 ft | 466 kts | 60° |
| 2026-04-26 23:25 | 41.94276 | 8.04726 | 36182 ft | 466 kts | 60° |
| 2026-04-26 23:25 | 41.97347 | 8.12402 | 36178 ft | 467 kts | 60° |
| 2026-04-26 23:26 | 42.00415 | 8.20098 | 36153 ft | 467 kts | 60° |
| 2026-04-26 23:26 | 42.01920 | 8.23883 | 35270 ft | 467 kts | 60° |
| 2026-04-26 23:26 | 42.03447 | 8.27724 | 34283 ft | 463 kts | 60° |
| 2026-04-26 23:26 | 42.04954 | 8.31517 | 33299 ft | 457 kts | 60° |
| 2026-04-26 23:27 | 42.06436 | 8.35256 | 32361 ft | 449 kts | 60° |
| 2026-04-26 23:27 | 42.07896 | 8.38947 | 31372 ft | 445 kts | 61° |
| 2026-04-26 23:27 | 42.09345 | 8.42622 | 30369 ft | 444 kts | 61° |
| 2026-04-26 23:27 | 42.10801 | 8.46317 | 29224 ft | 451 kts | 61° |
| 2026-04-26 23:28 | 42.12178 | 8.49814 | 28162 ft | 457 kts | 61° |
| 2026-04-26 23:28 | 42.13680 | 8.53634 | 26963 ft | 465 kts | 61° |
| 2026-04-26 23:28 | 42.15201 | 8.57506 | 25840 ft | 470 kts | 62° |
| 2026-04-26 23:28 | 42.16724 | 8.61381 | 25090 ft | 466 kts | 62° |
| 2026-04-26 23:29 | 42.18238 | 8.65233 | 24248 ft | 465 kts | 62° |
| 2026-04-26 23:29 | 42.19749 | 8.69091 | 23354 ft | 464 kts | 62° |
| 2026-04-26 23:29 | 42.21267 | 8.72917 | 22548 ft | 460 kts | 59° |
| 2026-04-26 23:29 | 42.23155 | 8.76365 | 21774 ft | 455 kts | 46° |
| 2026-04-26 23:30 | 42.25515 | 8.79158 | 21028 ft | 449 kts | 34° |
| 2026-04-26 23:30 | 42.28022 | 8.81092 | 20284 ft | 445 kts | 23° |
| 2026-04-26 23:30 | 42.30746 | 8.82332 | 19449 ft | 444 kts | 11° |
| 2026-04-26 23:30 | 42.33800 | 8.82823 | 18615 ft | 442 kts | 359° |
| 2026-04-26 23:31 | 42.36873 | 8.82817 | 17737 ft | 440 kts | 359° |
| 2026-04-26 23:31 | 42.39917 | 8.82826 | 16891 ft | 431 kts | 1° |
| 2026-04-26 23:31 | 42.42834 | 8.83441 | 15645 ft | 421 kts | 13° |
| 2026-04-26 23:31 | 42.45669 | 8.84330 | 14354 ft | 415 kts | 13° |
| 2026-04-26 23:32 | 42.48455 | 8.85201 | 13053 ft | 407 kts | 13° |
| 2026-04-26 23:32 | 42.51187 | 8.86072 | 11720 ft | 400 kts | 15° |
| 2026-04-26 23:32 | 42.53814 | 8.87218 | 10444 ft | 393 kts | 20° |
| 2026-04-26 23:32 | 42.56322 | 8.88606 | 9129 ft | 386 kts | 24° |
| 2026-04-26 23:33 | 42.58743 | 8.90116 | 7832 ft | 379 kts | 25° |
| 2026-04-26 23:33 | 42.61095 | 8.91642 | 6599 ft | 371 kts | 25° |
| 2026-04-26 23:33 | 42.63405 | 8.93127 | 5264 ft | 364 kts | 25° |
| 2026-04-26 23:33 | 42.65685 | 8.94550 | 4026 ft | 356 kts | 24° |
| 2026-04-26 23:34 | 42.67880 | 8.95879 | 3450 ft | 333 kts | 24° |
| 2026-04-26 23:34 | 42.69906 | 8.97083 | 3208 ft | 302 kts | 23° |
| 2026-04-26 23:34 | 42.71793 | 8.97563 | 2925 ft | 270 kts | 350° |
| 2026-04-26 23:34 | 42.73396 | 8.96442 | 2669 ft | 261 kts | 309° |
| 2026-04-26 23:35 | 42.74073 | 8.94221 | 2512 ft | 258 kts | 272° |
| 2026-04-26 23:35 | 42.73920 | 8.91795 | 2678 ft | 260 kts | 262° |
| 2026-04-26 23:35 | 42.73687 | 8.89355 | 2946 ft | 260 kts | 262° |
| 2026-04-26 23:35 | 42.73456 | 8.86917 | 3177 ft | 260 kts | 259° |
| 2026-04-26 23:36 | 42.72863 | 8.84641 | 3416 ft | 260 kts | 239° |
| 2026-04-26 23:36 | 42.71707 | 8.82766 | 3661 ft | 260 kts | 219° |
| 2026-04-26 23:36 | 42.70137 | 8.81533 | 3738 ft | 263 kts | 200° |
| 2026-04-26 23:36 | 42.68408 | 8.80876 | 3646 ft | 251 kts | 195° |
| 2026-04-26 23:37 | 42.66820 | 8.80270 | 3401 ft | 222 kts | 197° |
| 2026-04-26 23:37 | 42.65408 | 8.79687 | 2935 ft | 203 kts | 194° |
| 2026-04-26 23:37 | 42.64088 | 8.79400 | 2580 ft | 180 kts | 182° |
| 2026-04-26 23:37 | 42.62922 | 8.79432 | 2477 ft | 159 kts | 179° |
| 2026-04-26 23:38 | 42.61827 | 8.79421 | 2035 ft | 157 kts | 183° |
| 2026-04-26 23:38 | 42.60742 | 8.79347 | 1587 ft | 156 kts | 182° |
| 2026-04-26 23:38 | 42.59668 | 8.79310 | 1223 ft | 151 kts | 182° |
| 2026-04-26 23:38 | 42.58641 | 8.79282 | 1004 ft | 145 kts | 180° |
| 2026-04-26 23:39 | 42.57643 | 8.79282 | 829 ft | 142 kts | 180° |
| 2026-04-26 23:39 | 42.56660 | 8.79290 | 661 ft | 141 kts | 179° |
| 2026-04-26 23:39 | 42.55688 | 8.79313 | 427 ft | 138 kts | 180° |
| 2026-04-26 23:39 | 42.54726 | 8.79302 | 273 ft | 138 kts | 180° |
| 2026-04-26 23:40 | 42.53780 | 8.79299 | 149 ft | 127 kts | 181° |
| 2026-04-26 23:40 | 42.53047 | 8.79300 | 189 ft | 70 kts | 180° |
| 2026-04-26 23:40 | 42.52729 | 8.79301 | 211 ft | 32 kts | 180° |
| 2026-04-26 23:40 | 42.52536 | 8.79300 | 226 ft | 21 kts | 182° |
| 2026-04-26 23:41 | 42.52440 | 8.79261 | 232 ft | 9 kts | 261° |
| 2026-04-26 23:41 | 42.52437 | 8.79214 | 230 ft | 5 kts | 263° |
| 2026-04-26 23:41 | 42.52451 | 8.79136 | 229 ft | 7 kts | 304° |
| 2026-04-26 23:41 | 42.52465 | 8.79100 | 230 ft | 0 kts | 298° |